Inconfidentes, Brazil
Current Conditions -  °F | °C
As of 7:00 PM on Monday 22 Dec 2014 (Local Time) from SBPC Reporting Station
Light Rain Light Rain  
Wind Chill: 66°   Ceiling: 7000
Heat Index: 66°   Visibility: 6mi
Dew Point: 66°   Wind: 2mph
Humidity: 100%   Direction: 310°NW
Pressure: 30.03"   Gusts: NA
Location:  22.32°S, 46.33°W
Report Text: SBPC 222100Z 31002KT 9999 -RA FEW015 OVC070 19/19 Q1017
Loading
Personal Weather Stations






























Interactive Weather Map New forecast layout! Learn more

10-Day Weather Forecast

Advertisements
Track Severe Weather on mobile